createdAt,value
2018-12-12T00:00:43.108Z,6.87
2018-12-12T00:05:47.827Z,4.93
2018-12-12T00:10:52.051Z,7.47
2018-12-12T00:15:55.950Z,9.70
2018-12-12T00:20:59.958Z,6.30
2018-12-12T00:26:03.988Z,6.43
2018-12-12T00:31:07.896Z,5.33
2018-12-12T00:36:11.845Z,7.80
2018-12-12T00:41:16.353Z,6.80
2018-12-12T00:46:20.389Z,7.93
2018-12-12T00:51:24.430Z,8.00
2018-12-12T00:56:28.489Z,6.83
2018-12-12T01:01:32.667Z,5.30
2018-12-12T01:06:36.664Z,6.87
2018-12-12T01:11:45.796Z,5.83
2018-12-12T01:16:49.720Z,5.00
2018-12-12T01:21:53.874Z,6.37
2018-12-12T01:26:57.808Z,8.00
2018-12-12T01:32:08.929Z,8.60
2018-12-12T01:37:16.452Z,5.83
2018-12-12T01:42:20.311Z,6.70
2018-12-12T01:47:24.237Z,6.50
2018-12-12T01:52:28.243Z,6.03
2018-12-12T01:57:32.190Z,7.20
2018-12-12T02:02:36.102Z,7.07
2018-12-12T02:07:40.425Z,6.87
2018-12-12T02:12:50.812Z,6.60
2018-12-12T02:17:54.805Z,5.33
2018-12-12T02:22:58.754Z,5.60
2018-12-12T02:28:02.681Z,7.03
2018-12-12T02:33:06.609Z,6.07
2018-12-12T02:38:10.520Z,6.17
2018-12-12T02:43:14.587Z,6.60
2018-12-12T02:48:18.491Z,6.90
2018-12-12T02:56:27.485Z,6.97
2018-12-12T03:01:31.384Z,7.10
2018-12-12T03:06:35.284Z,6.13
2018-12-12T03:11:39.237Z,7.07
2018-12-12T03:16:43.280Z,8.37
2018-12-12T03:21:47.194Z,7.50
2018-12-12T03:26:51.113Z,6.57
2018-12-12T03:31:55.062Z,7.53
2018-12-12T03:36:59.049Z,7.13
2018-12-12T03:42:03.019Z,7.30
2018-12-12T03:47:07.155Z,7.87
2018-12-12T03:52:11.137Z,7.57
2018-12-12T03:57:15.065Z,6.90
2018-12-12T04:02:18.989Z,6.47
2018-12-12T04:07:22.908Z,6.97
2018-12-12T04:12:26.959Z,8.57
2018-12-12T04:17:30.862Z,7.03
2018-12-12T04:22:34.985Z,6.43
2018-12-12T04:27:38.937Z,6.47
2018-12-12T04:32:42.839Z,7.40
2018-12-12T04:37:46.792Z,7.10
2018-12-12T04:42:50.945Z,6.67
2018-12-12T04:47:54.868Z,8.27
2018-12-12T04:52:58.780Z,8.27
2018-12-12T05:00:04.953Z,10.13
2018-12-12T05:05:08.863Z,9.20
2018-12-12T05:10:12.912Z,9.83
2018-12-12T05:15:17.064Z,9.13
2018-12-12T05:20:20.976Z,7.07
2018-12-12T05:25:24.948Z,6.23
2018-12-12T05:30:28.917Z,6.67
2018-12-12T05:35:32.879Z,7.70
2018-12-12T05:40:36.894Z,7.37
2018-12-12T05:45:41.107Z,8.00
2018-12-12T05:50:45.069Z,8.00
2018-12-12T06:00:29.017Z,8.67
2018-12-12T06:05:32.937Z,7.97
2018-12-12T06:10:36.870Z,6.07
2018-12-12T06:15:40.789Z,8.07
2018-12-12T06:20:44.696Z,7.67
2018-12-12T06:25:48.626Z,8.90
2018-12-12T06:30:52.568Z,7.67
2018-12-12T06:47:39.393Z,8.30
2018-12-12T06:52:43.338Z,10.80
2018-12-12T06:57:47.401Z,8.77
2018-12-12T07:02:51.344Z,9.90
2018-12-12T07:07:55.546Z,11.60
2018-12-12T07:12:59.502Z,11.27
2018-12-12T07:18:03.414Z,10.83
2018-12-12T07:23:07.505Z,8.43
2018-12-12T07:28:11.749Z,9.50
2018-12-12T07:33:16.204Z,8.33
2018-12-12T07:38:20.172Z,10.40
2018-12-12T07:43:24.062Z,8.10
2018-12-12T07:48:28.125Z,9.17
2018-12-12T07:53:32.366Z,11.60
2018-12-12T07:58:36.340Z,11.37
2018-12-12T08:03:40.287Z,11.07
2018-12-12T08:08:44.241Z,9.80
2018-12-12T08:13:48.213Z,11.10
2018-12-12T08:18:52.310Z,6.97
2018-12-12T08:23:56.230Z,10.47
2018-12-12T08:29:00.185Z,10.00
2018-12-12T08:34:04.620Z,10.03
2018-12-12T08:39:08.688Z,12.17
2018-12-12T08:44:12.621Z,11.13
2018-12-12T08:49:16.572Z,11.13
2018-12-12T08:54:21.487Z,14.30
2018-12-12T08:59:25.650Z,14.70
2018-12-12T09:04:29.648Z,14.60
2018-12-12T09:09:33.685Z,13.50
2018-12-12T09:14:37.629Z,11.67
2018-12-12T09:19:41.524Z,13.90
2018-12-12T09:24:45.523Z,13.20
2018-12-12T09:30:27.001Z,15.60
2018-12-12T09:35:30.991Z,12.13
2018-12-12T09:40:35.182Z,11.97
2018-12-12T09:45:39.210Z,9.90
2018-12-12T09:50:43.134Z,10.50
2018-12-12T09:55:47.723Z,9.13
2018-12-12T10:00:51.613Z,10.60
2018-12-12T10:05:55.520Z,14.13
2018-12-12T10:10:59.519Z,17.10
2018-12-12T10:16:03.430Z,14.77
2018-12-12T10:21:07.422Z,20.23
2018-12-12T10:30:37.789Z,15.90
2018-12-12T10:35:41.778Z,16.83
2018-12-12T10:51:22.205Z,17.40
2018-12-12T10:56:26.129Z,15.93
2018-12-12T11:01:34.589Z,19.40
2018-12-12T11:06:38.496Z,22.47
2018-12-12T11:11:42.407Z,25.03
2018-12-12T11:16:46.304Z,22.23
2018-12-12T11:21:50.496Z,20.73
2018-12-12T11:26:54.679Z,23.63
2018-12-12T11:31:58.627Z,21.13
2018-12-12T11:37:02.717Z,17.23
2018-12-12T11:42:06.624Z,22.80
2018-12-12T11:47:10.608Z,22.63
2018-12-12T11:52:14.557Z,17.13
2018-12-12T11:57:19.061Z,15.40
2018-12-12T12:02:23.115Z,16.27
2018-12-12T12:07:27.062Z,16.40
2018-12-12T12:12:31.260Z,12.03
2018-12-12T12:17:35.506Z,14.47
2018-12-12T12:22:39.421Z,16.63
2018-12-12T12:27:43.336Z,11.60
2018-12-12T12:32:47.625Z,13.43
2018-12-12T12:37:51.572Z,11.80
2018-12-12T12:42:55.485Z,11.73
2018-12-12T12:47:59.537Z,11.97
2018-12-12T12:53:03.593Z,12.17
2018-12-12T12:58:07.490Z,14.40
2018-12-12T13:03:11.470Z,13.67
2018-12-12T13:08:15.430Z,10.90
2018-12-12T13:13:19.830Z,11.20
2018-12-12T13:18:24.092Z,13.27
2018-12-12T13:23:28.004Z,14.47
2018-12-12T13:28:31.914Z,10.53
2018-12-12T13:33:35.904Z,10.90
2018-12-12T13:38:40.057Z,8.53
2018-12-12T13:43:43.982Z,10.33
2018-12-12T13:48:47.913Z,8.40
2018-12-12T13:53:51.894Z,9.90
2018-12-12T13:58:56.128Z,7.47
2018-12-12T14:04:00.103Z,10.33
2018-12-12T14:09:05.379Z,8.13
2018-12-12T14:14:09.281Z,8.27
2018-12-12T14:19:13.206Z,6.37
2018-12-12T14:24:17.132Z,5.63
2018-12-12T14:29:21.176Z,7.00
2018-12-12T14:34:29.243Z,5.00
2018-12-12T14:39:31.372Z,6.13
2018-12-12T14:44:35.326Z,9.23
2018-12-12T14:49:39.220Z,7.63
2018-12-12T14:54:43.152Z,9.70
2018-12-12T14:59:47.120Z,8.57
2018-12-12T15:04:50.996Z,8.03
2018-12-12T15:09:55.085Z,5.60
2018-12-12T15:14:58.988Z,6.93
2018-12-12T15:20:02.992Z,12.67
2018-12-12T15:25:07.317Z,8.50
2018-12-12T15:30:11.322Z,9.27
2018-12-12T15:35:15.286Z,11.03
2018-12-12T15:40:19.399Z,6.63
2018-12-12T15:45:23.616Z,5.33
2018-12-12T15:50:27.562Z,6.20
2018-12-12T15:55:31.464Z,6.50
2018-12-12T16:00:35.527Z,5.77
2018-12-12T16:05:39.420Z,5.47
2018-12-12T16:10:43.415Z,6.03
2018-12-12T16:15:47.701Z,5.97
2018-12-12T16:20:51.613Z,5.07
2018-12-12T16:25:55.548Z,7.43
2018-12-12T16:30:59.550Z,5.93
2018-12-12T16:36:03.637Z,5.00
2018-12-12T16:41:07.862Z,6.43
2018-12-12T16:46:11.775Z,5.23
2018-12-12T16:51:15.673Z,4.17
2018-12-12T16:56:19.971Z,4.93
2018-12-12T17:01:23.976Z,5.00
2018-12-12T17:06:27.887Z,4.77
2018-12-12T17:11:32.122Z,4.10
2018-12-12T17:16:36.028Z,4.53
2018-12-12T17:21:39.948Z,5.37
2018-12-12T17:26:43.882Z,6.73
2018-12-12T17:31:47.797Z,5.57
2018-12-12T17:36:51.688Z,5.70
2018-12-12T17:41:55.628Z,4.67
2018-12-12T17:46:59.566Z,6.47
2018-12-12T17:52:03.508Z,6.20
2018-12-12T17:57:07.608Z,7.00
2018-12-12T18:02:11.919Z,5.63
2018-12-12T18:07:16.231Z,10.67
2018-12-12T18:12:20.122Z,6.33
2018-12-12T18:17:24.067Z,6.23
2018-12-12T18:22:28.373Z,8.27
2018-12-12T18:27:33.617Z,9.93
2018-12-12T18:32:37.544Z,4.20
2018-12-12T18:37:41.762Z,5.77
2018-12-12T18:42:45.951Z,4.63
2018-12-12T18:47:49.902Z,10.00
2018-12-12T18:52:54.204Z,6.90
2018-12-12T18:57:58.134Z,4.80
2018-12-12T19:03:02.054Z,6.40
2018-12-12T19:08:06.323Z,5.70
2018-12-12T19:13:10.201Z,5.23
2018-12-12T19:18:14.193Z,4.77
2018-12-12T19:23:18.687Z,5.47
2018-12-12T19:28:23.828Z,6.60
2018-12-12T19:33:28.163Z,7.83
2018-12-12T19:38:32.625Z,5.40
2018-12-12T19:43:36.888Z,5.13
2018-12-12T19:48:41.291Z,5.00
2018-12-12T19:53:45.994Z,4.87
2018-12-12T19:58:50.858Z,4.57
2018-12-12T20:03:55.190Z,8.13
2018-12-12T20:08:59.267Z,6.30
2018-12-12T20:14:05.082Z,6.10
2018-12-12T20:19:09.251Z,5.27
2018-12-12T20:24:13.566Z,6.33
2018-12-12T20:29:18.824Z,7.33
2018-12-12T20:34:22.809Z,5.90
2018-12-12T20:39:27.917Z,5.57
2018-12-12T20:44:36.447Z,6.00
2018-12-12T20:49:40.469Z,5.97
2018-12-12T20:54:45.649Z,5.07
2018-12-12T20:59:49.817Z,5.50
2018-12-12T21:04:54.538Z,6.30
2018-12-12T21:09:59.427Z,6.23
2018-12-12T21:15:04.039Z,5.40
2018-12-12T21:20:09.888Z,5.63
2018-12-12T21:25:13.975Z,6.07
2018-12-12T21:30:18.238Z,3.77
2018-12-12T21:35:22.332Z,4.43
2018-12-12T21:40:26.331Z,4.77
2018-12-12T21:45:30.364Z,4.93
2018-12-12T21:50:34.802Z,4.53
2018-12-12T21:55:40.738Z,4.63
2018-12-12T22:00:45.667Z,3.67
2018-12-12T22:05:49.896Z,5.87
2018-12-12T22:10:54.189Z,5.77
2018-12-12T22:16:00.637Z,4.27
2018-12-12T22:21:04.569Z,5.63
2018-12-12T22:26:08.870Z,5.77
2018-12-12T22:31:12.856Z,5.53
2018-12-12T22:36:16.797Z,5.50
2018-12-12T22:41:20.915Z,5.53
2018-12-12T22:46:25.044Z,6.90
2018-12-12T22:51:28.967Z,5.90
2018-12-12T22:56:32.893Z,4.93
2018-12-12T23:01:37.025Z,4.40
2018-12-12T23:06:40.920Z,2.87
2018-12-12T23:11:44.944Z,4.03
2018-12-12T23:16:48.825Z,7.13
2018-12-12T23:21:52.748Z,4.07
2018-12-12T23:26:56.671Z,7.27
2018-12-12T23:32:00.589Z,5.57
2018-12-12T23:37:04.572Z,8.40
2018-12-12T23:42:08.816Z,8.40
2018-12-12T23:47:12.722Z,5.87
2018-12-12T23:52:16.615Z,5.33
2018-12-12T23:57:20.713Z,5.17
